sensor_id;sensor_type;location;lat;lon;timestamp;temperature;humidity
1359;DHT22;673;48.098;14.422;2023-11-21T00:01:21;5.90;99.90
1359;DHT22;673;48.098;14.422;2023-11-21T00:03:50;5.70;99.90
1359;DHT22;673;48.098;14.422;2023-11-21T00:06:20;5.60;99.90
1359;DHT22;673;48.098;14.422;2023-11-21T00:08:47;5.70;99.90
1359;DHT22;673;48.098;14.422;2023-11-21T00:11:14;5.70;99.90
1359;DHT22;673;48.098;14.422;2023-11-21T00:13:41;5.70;99.90
1359;DHT22;673;48.098;14.422;2023-11-21T00:16:08;5.70;99.90
1359;DHT22;673;48.098;14.422;2023-11-21T00:18:35;5.70;99.90
1359;DHT22;673;48.098;14.422;2023-11-21T00:21:03;5.70;99.90
1359;DHT22;673;48.098;14.422;2023-11-21T00:23:30;5.70;99.90
1359;DHT22;673;48.098;14.422;2023-11-21T00:25:57;5.70;99.90
1359;DHT22;673;48.098;14.422;2023-11-21T00:28:25;5.80;99.90
1359;DHT22;673;48.098;14.422;2023-11-21T00:30:52;5.80;99.90
1359;DHT22;673;48.098;14.422;2023-11-21T00:33:19;5.80;99.90
1359;DHT22;673;48.098;14.422;2023-11-21T00:35:46;5.90;99.90
1359;DHT22;673;48.098;14.422;2023-11-21T00:38:15;5.90;99.90
1359;DHT22;673;48.098;14.422;2023-11-21T00:40:45;5.90;99.90
1359;DHT22;673;48.098;14.422;2023-11-21T00:43:12;5.90;99.90
1359;DHT22;673;48.098;14.422;2023-11-21T00:45:40;5.90;99.90
1359;DHT22;673;48.098;14.422;2023-11-21T00:48:08;5.90;99.90
1359;DHT22;673;48.098;14.422;2023-11-21T00:50:35;5.90;99.90
1359;DHT22;673;48.098;14.422;2023-11-21T00:53:02;5.90;99.90
1359;DHT22;673;48.098;14.422;2023-11-21T00:55:30;5.90;99.90
1359;DHT22;673;48.098;14.422;2023-11-21T00:57:57;5.90;99.90
1359;DHT22;673;48.098;14.422;2023-11-21T01:00:24;5.80;99.90
1359;DHT22;673;48.098;14.422;2023-11-21T01:02:51;5.80;99.90
1359;DHT22;673;48.098;14.422;2023-11-21T01:05:18;5.70;99.90
1359;DHT22;673;48.098;14.422;2023-11-21T01:07:46;5.70;99.90
1359;DHT22;673;48.098;14.422;2023-11-21T01:10:13;5.60;99.90
1359;DHT22;673;48.098;14.422;2023-11-21T01:12:41;5.60;99.90
1359;DHT22;673;48.098;14.422;2023-11-21T01:15:08;5.60;99.90
1359;DHT22;673;48.098;14.422;2023-11-21T01:17:37;5.50;99.90
1359;DHT22;673;48.098;14.422;2023-11-21T01:20:06;5.50;99.90
1359;DHT22;673;48.098;14.422;2023-11-21T01:22:37;5.50;99.90
1359;DHT22;673;48.098;14.422;2023-11-21T01:25:05;5.50;99.90
1359;DHT22;673;48.098;14.422;2023-11-21T01:27:33;5.50;99.90
1359;DHT22;673;48.098;14.422;2023-11-21T01:30:02;5.50;99.90
1359;DHT22;673;48.098;14.422;2023-11-21T01:32:30;5.50;99.90
1359;DHT22;673;48.098;14.422;2023-11-21T01:34:57;5.40;99.90
1359;DHT22;673;48.098;14.422;2023-11-21T01:37:24;5.30;99.90
1359;DHT22;673;48.098;14.422;2023-11-21T01:39:53;5.20;99.90
1359;DHT22;673;48.098;14.422;2023-11-21T01:42:20;5.20;99.90
1359;DHT22;673;48.098;14.422;2023-11-21T01:44:47;5.00;99.90
1359;DHT22;673;48.098;14.422;2023-11-21T01:47:16;4.90;99.90
1359;DHT22;673;48.098;14.422;2023-11-21T01:49:44;4.90;99.90
1359;DHT22;673;48.098;14.422;2023-11-21T01:52:12;4.90;99.90
1359;DHT22;673;48.098;14.422;2023-11-21T01:54:39;4.80;99.90
1359;DHT22;673;48.098;14.422;2023-11-21T01:57:08;4.80;99.90
1359;DHT22;673;48.098;14.422;2023-11-21T01:59:36;4.80;99.90
1359;DHT22;673;48.098;14.422;2023-11-21T02:02:03;4.90;99.90
1359;DHT22;673;48.098;14.422;2023-11-21T02:04:33;5.00;99.90
1359;DHT22;673;48.098;14.422;2023-11-21T02:07:01;5.10;99.90
1359;DHT22;673;48.098;14.422;2023-11-21T02:09:29;5.20;99.90
1359;DHT22;673;48.098;14.422;2023-11-21T02:11:57;5.30;99.90
1359;DHT22;673;48.098;14.422;2023-11-21T02:14:24;5.40;99.90
1359;DHT22;673;48.098;14.422;2023-11-21T02:16:52;5.40;99.90
1359;DHT22;673;48.098;14.422;2023-11-21T02:19:20;5.40;99.90
1359;DHT22;673;48.098;14.422;2023-11-21T02:21:51;5.50;99.90
1359;DHT22;673;48.098;14.422;2023-11-21T02:24:20;5.50;99.90
1359;DHT22;673;48.098;14.422;2023-11-21T02:26:47;5.50;99.90
1359;DHT22;673;48.098;14.422;2023-11-21T02:29:17;5.40;99.90
1359;DHT22;673;48.098;14.422;2023-11-21T02:31:47;5.20;99.90
1359;DHT22;673;48.098;14.422;2023-11-21T02:34:14;5.20;99.90
1359;DHT22;673;48.098;14.422;2023-11-21T02:36:42;5.40;99.90
1359;DHT22;673;48.098;14.422;2023-11-21T02:39:09;5.50;99.90
1359;DHT22;673;48.098;14.422;2023-11-21T02:41:38;5.40;99.90
1359;DHT22;673;48.098;14.422;2023-11-21T02:44:06;5.40;99.90
1359;DHT22;673;48.098;14.422;2023-11-21T02:46:33;5.20;99.90
1359;DHT22;673;48.098;14.422;2023-11-21T02:49:01;5.20;99.90
1359;DHT22;673;48.098;14.422;2023-11-21T02:51:28;5.10;99.90
1359;DHT22;673;48.098;14.422;2023-11-21T02:53:55;5.00;99.90
1359;DHT22;673;48.098;14.422;2023-11-21T02:56:24;5.00;99.90
1359;DHT22;673;48.098;14.422;2023-11-21T02:58:55;4.90;99.90
1359;DHT22;673;48.098;14.422;2023-11-21T03:01:23;4.90;99.90
1359;DHT22;673;48.098;14.422;2023-11-21T03:03:50;4.90;99.90
1359;DHT22;673;48.098;14.422;2023-11-21T03:06:18;4.90;99.90
1359;DHT22;673;48.098;14.422;2023-11-21T03:08:45;4.90;99.90
1359;DHT22;673;48.098;14.422;2023-11-21T03:11:13;4.90;99.90
1359;DHT22;673;48.098;14.422;2023-11-21T03:13:40;5.10;99.90
1359;DHT22;673;48.098;14.422;2023-11-21T03:16:10;5.20;99.90
1359;DHT22;673;48.098;14.422;2023-11-21T03:18:37;5.30;99.90
1359;DHT22;673;48.098;14.422;2023-11-21T03:21:05;5.40;99.90
1359;DHT22;673;48.098;14.422;2023-11-21T03:23:35;5.60;99.90
1359;DHT22;673;48.098;14.422;2023-11-21T03:26:02;5.70;99.90
1359;DHT22;673;48.098;14.422;2023-11-21T03:28:29;5.80;99.90
1359;DHT22;673;48.098;14.422;2023-11-21T03:30:57;5.80;99.90
1359;DHT22;673;48.098;14.422;2023-11-21T03:33:25;5.90;99.90
1359;DHT22;673;48.098;14.422;2023-11-21T03:35:52;5.90;99.90
1359;DHT22;673;48.098;14.422;2023-11-21T03:38:19;6.00;99.90
1359;DHT22;673;48.098;14.422;2023-11-21T03:40:46;6.00;99.90
1359;DHT22;673;48.098;14.422;2023-11-21T03:43:13;6.00;99.90
1359;DHT22;673;48.098;14.422;2023-11-21T03:45:40;6.00;99.90
1359;DHT22;673;48.098;14.422;2023-11-21T03:48:07;6.00;99.90
1359;DHT22;673;48.098;14.422;2023-11-21T03:50:36;6.10;99.90
1359;DHT22;673;48.098;14.422;2023-11-21T03:53:03;6.00;99.90
1359;DHT22;673;48.098;14.422;2023-11-21T03:55:30;6.00;99.90
1359;DHT22;673;48.098;14.422;2023-11-21T03:57:58;6.00;99.90
1359;DHT22;673;48.098;14.422;2023-11-21T04:00:25;6.10;99.90
1359;DHT22;673;48.098;14.422;2023-11-21T04:02:53;6.10;99.90
1359;DHT22;673;48.098;14.422;2023-11-21T04:05:20;6.10;99.90
1359;DHT22;673;48.098;14.422;2023-11-21T04:07:50;6.20;99.90
1359;DHT22;673;48.098;14.422;2023-11-21T04:10:18;6.20;99.90
1359;DHT22;673;48.098;14.422;2023-11-21T04:12:45;6.20;99.90
1359;DHT22;673;48.098;14.422;2023-11-21T04:15:12;6.20;99.90
1359;DHT22;673;48.098;14.422;2023-11-21T04:17:40;6.30;99.90
1359;DHT22;673;48.098;14.422;2023-11-21T04:20:08;6.30;99.90
1359;DHT22;673;48.098;14.422;2023-11-21T04:22:37;6.30;99.90
1359;DHT22;673;48.098;14.422;2023-11-21T04:25:08;6.30;99.90
1359;DHT22;673;48.098;14.422;2023-11-21T04:27:36;6.20;99.90
1359;DHT22;673;48.098;14.422;2023-11-21T04:30:04;6.20;99.90
1359;DHT22;673;48.098;14.422;2023-11-21T04:32:33;6.20;99.90
1359;DHT22;673;48.098;14.422;2023-11-21T04:35:00;6.10;99.90
1359;DHT22;673;48.098;14.422;2023-11-21T04:37:27;6.00;99.90
1359;DHT22;673;48.098;14.422;2023-11-21T04:39:54;5.90;99.90
1359;DHT22;673;48.098;14.422;2023-11-21T04:42:22;5.90;99.90
1359;DHT22;673;48.098;14.422;2023-11-21T04:44:49;5.80;99.90
1359;DHT22;673;48.098;14.422;2023-11-21T04:47:18;5.80;99.90
1359;DHT22;673;48.098;14.422;2023-11-21T04:49:46;5.80;99.90
1359;DHT22;673;48.098;14.422;2023-11-21T04:52:13;5.80;99.90
1359;DHT22;673;48.098;14.422;2023-11-21T04:54:40;5.90;99.90
1359;DHT22;673;48.098;14.422;2023-11-21T04:57:08;5.80;99.90
1359;DHT22;673;48.098;14.422;2023-11-21T04:59:38;5.70;99.90
1359;DHT22;673;48.098;14.422;2023-11-21T05:02:05;5.50;99.90
1359;DHT22;673;48.098;14.422;2023-11-21T05:04:32;5.40;99.90
1359;DHT22;673;48.098;14.422;2023-11-21T05:06:59;5.40;99.90
1359;DHT22;673;48.098;14.422;2023-11-21T05:09:26;5.30;99.90
1359;DHT22;673;48.098;14.422;2023-11-21T05:11:57;5.20;99.90
1359;DHT22;673;48.098;14.422;2023-11-21T05:14:25;5.00;99.90
1359;DHT22;673;48.098;14.422;2023-11-21T05:16:54;4.90;99.90
1359;DHT22;673;48.098;14.422;2023-11-21T05:19:21;4.90;99.90
1359;DHT22;673;48.098;14.422;2023-11-21T05:21:48;4.80;99.90
1359;DHT22;673;48.098;14.422;2023-11-21T05:24:15;4.80;99.90
1359;DHT22;673;48.098;14.422;2023-11-21T05:26:42;4.90;99.90
1359;DHT22;673;48.098;14.422;2023-11-21T05:29:09;5.00;99.90
1359;DHT22;673;48.098;14.422;2023-11-21T05:31:36;5.20;99.90
1359;DHT22;673;48.098;14.422;2023-11-21T05:34:05;5.40;99.90
1359;DHT22;673;48.098;14.422;2023-11-21T05:36:32;5.60;99.90
1359;DHT22;673;48.098;14.422;2023-11-21T05:38:59;5.70;99.90
1359;DHT22;673;48.098;14.422;2023-11-21T05:41:26;5.70;99.90
1359;DHT22;673;48.098;14.422;2023-11-21T05:43:53;5.70;99.90
1359;DHT22;673;48.098;14.422;2023-11-21T05:46:20;5.70;99.90
1359;DHT22;673;48.098;14.422;2023-11-21T05:48:47;5.70;99.90
1359;DHT22;673;48.098;14.422;2023-11-21T05:51:15;5.80;99.90
1359;DHT22;673;48.098;14.422;2023-11-21T05:53:43;5.80;99.90
1359;DHT22;673;48.098;14.422;2023-11-21T05:56:10;5.80;99.90
1359;DHT22;673;48.098;14.422;2023-11-21T05:58:37;5.80;99.90
1359;DHT22;673;48.098;14.422;2023-11-21T06:01:06;5.90;99.90
1359;DHT22;673;48.098;14.422;2023-11-21T06:03:34;5.90;99.90
1359;DHT22;673;48.098;14.422;2023-11-21T06:06:01;5.90;99.90
1359;DHT22;673;48.098;14.422;2023-11-21T06:08:31;5.90;99.90
1359;DHT22;673;48.098;14.422;2023-11-21T06:10:58;5.90;99.90
1359;DHT22;673;48.098;14.422;2023-11-21T06:13:25;5.90;99.90
1359;DHT22;673;48.098;14.422;2023-11-21T06:15:52;5.90;99.90
1359;DHT22;673;48.098;14.422;2023-11-21T06:18:19;5.90;99.90
1359;DHT22;673;48.098;14.422;2023-11-21T06:20:46;5.90;99.90
1359;DHT22;673;48.098;14.422;2023-11-21T06:23:13;6.00;99.90
1359;DHT22;673;48.098;14.422;2023-11-21T06:25:43;6.00;99.90
1359;DHT22;673;48.098;14.422;2023-11-21T06:28:10;6.10;99.90
1359;DHT22;673;48.098;14.422;2023-11-21T06:30:37;6.10;99.90
1359;DHT22;673;48.098;14.422;2023-11-21T06:33:04;6.10;99.90
1359;DHT22;673;48.098;14.422;2023-11-21T06:35:32;6.10;99.90
1359;DHT22;673;48.098;14.422;2023-11-21T06:38:00;6.10;99.90
1359;DHT22;673;48.098;14.422;2023-11-21T06:40:28;6.20;99.90
1359;DHT22;673;48.098;14.422;2023-11-21T06:42:56;6.20;99.90
1359;DHT22;673;48.098;14.422;2023-11-21T06:45:24;6.20;99.90
1359;DHT22;673;48.098;14.422;2023-11-21T06:47:51;6.20;99.90
1359;DHT22;673;48.098;14.422;2023-11-21T06:50:18;6.20;99.90
1359;DHT22;673;48.098;14.422;2023-11-21T06:52:45;6.30;99.90
1359;DHT22;673;48.098;14.422;2023-11-21T06:55:12;6.20;99.90
1359;DHT22;673;48.098;14.422;2023-11-21T06:57:39;6.30;99.90
1359;DHT22;673;48.098;14.422;2023-11-21T07:00:09;6.40;99.90
1359;DHT22;673;48.098;14.422;2023-11-21T07:02:37;6.50;99.90
1359;DHT22;673;48.098;14.422;2023-11-21T07:05:04;6.70;99.90
1359;DHT22;673;48.098;14.422;2023-11-21T07:07:32;6.70;99.90
1359;DHT22;673;48.098;14.422;2023-11-21T07:10:01;6.70;99.90
1359;DHT22;673;48.098;14.422;2023-11-21T07:12:29;6.70;99.90
1359;DHT22;673;48.098;14.422;2023-11-21T07:14:56;6.60;99.90
1359;DHT22;673;48.098;14.422;2023-11-21T07:17:25;6.60;99.90
1359;DHT22;673;48.098;14.422;2023-11-21T07:19:52;6.60;99.90
1359;DHT22;673;48.098;14.422;2023-11-21T07:22:19;6.60;99.90
1359;DHT22;673;48.098;14.422;2023-11-21T07:24:48;6.60;99.90
1359;DHT22;673;48.098;14.422;2023-11-21T07:27:16;6.60;99.90
1359;DHT22;673;48.098;14.422;2023-11-21T07:29:44;6.60;99.90
1359;DHT22;673;48.098;14.422;2023-11-21T07:32:11;6.70;99.90
1359;DHT22;673;48.098;14.422;2023-11-21T07:34:40;6.70;99.90
1359;DHT22;673;48.098;14.422;2023-11-21T07:37:08;6.70;99.90
1359;DHT22;673;48.098;14.422;2023-11-21T07:39:35;6.80;99.90
1359;DHT22;673;48.098;14.422;2023-11-21T07:42:03;6.80;99.90
1359;DHT22;673;48.098;14.422;2023-11-21T07:44:30;6.80;99.90
1359;DHT22;673;48.098;14.422;2023-11-21T07:46:57;6.70;99.90
1359;DHT22;673;48.098;14.422;2023-11-21T07:49:24;6.70;99.90
1359;DHT22;673;48.098;14.422;2023-11-21T07:51:53;6.70;99.90
1359;DHT22;673;48.098;14.422;2023-11-21T07:54:20;6.70;99.90
1359;DHT22;673;48.098;14.422;2023-11-21T07:56:48;6.70;99.90
1359;DHT22;673;48.098;14.422;2023-11-21T07:59:15;6.70;99.90
1359;DHT22;673;48.098;14.422;2023-11-21T08:01:42;6.80;99.90
1359;DHT22;673;48.098;14.422;2023-11-21T08:04:11;6.80;99.90
1359;DHT22;673;48.098;14.422;2023-11-21T08:06:38;6.90;99.90
1359;DHT22;673;48.098;14.422;2023-11-21T08:09:08;7.00;99.90
1359;DHT22;673;48.098;14.422;2023-11-21T08:11:38;7.10;99.90
1359;DHT22;673;48.098;14.422;2023-11-21T08:14:05;7.20;99.90
1359;DHT22;673;48.098;14.422;2023-11-21T08:16:32;7.30;99.90
1359;DHT22;673;48.098;14.422;2023-11-21T08:18:59;7.60;99.90
1359;DHT22;673;48.098;14.422;2023-11-21T08:21:26;7.80;99.90
1359;DHT22;673;48.098;14.422;2023-11-21T08:23:54;8.00;99.90
1359;DHT22;673;48.098;14.422;2023-11-21T08:26:23;8.00;99.90
1359;DHT22;673;48.098;14.422;2023-11-21T08:28:51;8.00;99.90
1359;DHT22;673;48.098;14.422;2023-11-21T08:31:24;8.00;99.90
1359;DHT22;673;48.098;14.422;2023-11-21T08:33:51;8.10;99.90
1359;DHT22;673;48.098;14.422;2023-11-21T08:36:21;8.10;99.90
1359;DHT22;673;48.098;14.422;2023-11-21T08:38:49;8.10;99.90
1359;DHT22;673;48.098;14.422;2023-11-21T08:41:18;8.00;99.90
1359;DHT22;673;48.098;14.422;2023-11-21T08:43:49;7.90;99.90
1359;DHT22;673;48.098;14.422;2023-11-21T08:46:16;7.90;99.90
1359;DHT22;673;48.098;14.422;2023-11-21T08:48:43;7.90;99.90
1359;DHT22;673;48.098;14.422;2023-11-21T08:51:11;8.00;99.90
1359;DHT22;673;48.098;14.422;2023-11-21T08:53:39;8.10;99.90
1359;DHT22;673;48.098;14.422;2023-11-21T08:56:07;8.10;99.90
1359;DHT22;673;48.098;14.422;2023-11-21T08:58:35;8.10;99.90
1359;DHT22;673;48.098;14.422;2023-11-21T09:01:05;8.10;99.90
1359;DHT22;673;48.098;14.422;2023-11-21T09:03:32;8.20;99.90
1359;DHT22;673;48.098;14.422;2023-11-21T09:06:00;8.20;99.90
1359;DHT22;673;48.098;14.422;2023-11-21T09:08:27;8.20;99.90
1359;DHT22;673;48.098;14.422;2023-11-21T09:10:55;8.20;99.90
1359;DHT22;673;48.098;14.422;2023-11-21T09:13:22;8.30;99.90
1359;DHT22;673;48.098;14.422;2023-11-21T09:15:50;8.30;99.90
1359;DHT22;673;48.098;14.422;2023-11-21T09:18:19;8.40;99.90
1359;DHT22;673;48.098;14.422;2023-11-21T09:20:46;8.40;99.90
1359;DHT22;673;48.098;14.422;2023-11-21T09:23:13;8.40;99.90
1359;DHT22;673;48.098;14.422;2023-11-21T09:25:40;8.30;99.90
1359;DHT22;673;48.098;14.422;2023-11-21T09:28:07;8.20;99.90
1359;DHT22;673;48.098;14.422;2023-11-21T09:30:34;8.30;99.90
1359;DHT22;673;48.098;14.422;2023-11-21T09:33:01;8.00;99.90
1359;DHT22;673;48.098;14.422;2023-11-21T09:35:32;7.30;99.90
1359;DHT22;673;48.098;14.422;2023-11-21T09:37:59;7.30;99.90
1359;DHT22;673;48.098;14.422;2023-11-21T09:40:27;7.30;99.90
1359;DHT22;673;48.098;14.422;2023-11-21T09:42:57;7.00;99.90
1359;DHT22;673;48.098;14.422;2023-11-21T09:45:26;7.00;99.90
1359;DHT22;673;48.098;14.422;2023-11-21T09:47:54;6.90;99.90
1359;DHT22;673;48.098;14.422;2023-11-21T09:50:22;6.90;99.90
1359;DHT22;673;48.098;14.422;2023-11-21T09:52:55;6.90;99.90
1359;DHT22;673;48.098;14.422;2023-11-21T09:55:27;6.80;99.90
1359;DHT22;673;48.098;14.422;2023-11-21T09:57:56;6.90;99.90
1359;DHT22;673;48.098;14.422;2023-11-21T10:00:23;6.80;99.90
1359;DHT22;673;48.098;14.422;2023-11-21T10:02:52;6.80;99.90
1359;DHT22;673;48.098;14.422;2023-11-21T10:05:19;6.80;99.90
1359;DHT22;673;48.098;14.422;2023-11-21T10:07:50;7.00;99.90
1359;DHT22;673;48.098;14.422;2023-11-21T10:10:19;7.00;99.90
1359;DHT22;673;48.098;14.422;2023-11-21T10:12:50;7.10;99.90
1359;DHT22;673;48.098;14.422;2023-11-21T10:15:21;7.10;99.90
1359;DHT22;673;48.098;14.422;2023-11-21T10:17:49;7.00;99.90
1359;DHT22;673;48.098;14.422;2023-11-21T10:20:19;7.10;99.90
1359;DHT22;673;48.098;14.422;2023-11-21T10:22:46;7.20;99.90
1359;DHT22;673;48.098;14.422;2023-11-21T10:25:15;7.20;99.90
1359;DHT22;673;48.098;14.422;2023-11-21T10:27:47;7.30;99.90
1359;DHT22;673;48.098;14.422;2023-11-21T10:30:16;7.40;99.90
1359;DHT22;673;48.098;14.422;2023-11-21T10:32:43;7.70;99.90
1359;DHT22;673;48.098;14.422;2023-11-21T10:35:10;8.00;99.90
1359;DHT22;673;48.098;14.422;2023-11-21T10:37:38;8.20;99.90
1359;DHT22;673;48.098;14.422;2023-11-21T10:40:07;8.30;99.90
1359;DHT22;673;48.098;14.422;2023-11-21T10:42:36;8.30;99.90
1359;DHT22;673;48.098;14.422;2023-11-21T10:45:04;8.30;99.90
1359;DHT22;673;48.098;14.422;2023-11-21T10:47:35;8.20;99.90
1359;DHT22;673;48.098;14.422;2023-11-21T10:50:04;8.10;99.90
1359;DHT22;673;48.098;14.422;2023-11-21T10:52:32;8.10;99.90
1359;DHT22;673;48.098;14.422;2023-11-21T10:55:01;8.00;99.90
1359;DHT22;673;48.098;14.422;2023-11-21T10:57:29;8.10;99.90
1359;DHT22;673;48.098;14.422;2023-11-21T10:59:58;8.10;99.90
1359;DHT22;673;48.098;14.422;2023-11-21T11:02:26;8.20;99.90
1359;DHT22;673;48.098;14.422;2023-11-21T11:04:58;8.30;99.90
1359;DHT22;673;48.098;14.422;2023-11-21T11:07:27;8.40;99.90
1359;DHT22;673;48.098;14.422;2023-11-21T11:09:56;8.50;99.90
1359;DHT22;673;48.098;14.422;2023-11-21T11:12:25;8.50;99.90
1359;DHT22;673;48.098;14.422;2023-11-21T11:14:52;8.40;99.90
1359;DHT22;673;48.098;14.422;2023-11-21T11:17:20;8.40;99.90
1359;DHT22;673;48.098;14.422;2023-11-21T11:19:48;8.30;99.90
1359;DHT22;673;48.098;14.422;2023-11-21T11:22:24;8.40;99.90
1359;DHT22;673;48.098;14.422;2023-11-21T11:25:08;8.40;99.90
1359;DHT22;673;48.098;14.422;2023-11-21T11:27:47;8.50;99.90
1359;DHT22;673;48.098;14.422;2023-11-21T11:30:25;8.50;99.90
1359;DHT22;673;48.098;14.422;2023-11-21T11:33:03;8.50;99.90
1359;DHT22;673;48.098;14.422;2023-11-21T11:35:38;8.50;99.90
1359;DHT22;673;48.098;14.422;2023-11-21T11:38:09;8.40;99.90
1359;DHT22;673;48.098;14.422;2023-11-21T11:40:40;8.40;99.90
1359;DHT22;673;48.098;14.422;2023-11-21T11:43:07;8.40;99.90
1359;DHT22;673;48.098;14.422;2023-11-21T11:45:35;8.30;99.90
1359;DHT22;673;48.098;14.422;2023-11-21T11:48:10;8.30;99.90
1359;DHT22;673;48.098;14.422;2023-11-21T11:50:44;8.30;99.90
1359;DHT22;673;48.098;14.422;2023-11-21T11:53:33;8.20;99.90
1359;DHT22;673;48.098;14.422;2023-11-21T11:56:23;8.20;99.90
1359;DHT22;673;48.098;14.422;2023-11-21T11:58:51;8.20;99.90
1359;DHT22;673;48.098;14.422;2023-11-21T12:01:19;8.20;99.90
1359;DHT22;673;48.098;14.422;2023-11-21T12:04:23;8.20;99.90
1359;DHT22;673;48.098;14.422;2023-11-21T12:06:57;8.20;99.90
1359;DHT22;673;48.098;14.422;2023-11-21T12:09:25;8.20;99.90
1359;DHT22;673;48.098;14.422;2023-11-21T12:11:53;8.30;99.90
1359;DHT22;673;48.098;14.422;2023-11-21T12:14:22;8.30;99.90
1359;DHT22;673;48.098;14.422;2023-11-21T12:16:50;8.30;99.90
1359;DHT22;673;48.098;14.422;2023-11-21T12:19:19;8.30;99.90
1359;DHT22;673;48.098;14.422;2023-11-21T12:21:48;8.30;99.90
1359;DHT22;673;48.098;14.422;2023-11-21T12:24:16;8.30;99.90
1359;DHT22;673;48.098;14.422;2023-11-21T12:26:43;8.40;99.90
1359;DHT22;673;48.098;14.422;2023-11-21T12:29:11;8.40;99.90
1359;DHT22;673;48.098;14.422;2023-11-21T12:31:38;8.30;99.90
1359;DHT22;673;48.098;14.422;2023-11-21T12:34:05;8.20;99.90
1359;DHT22;673;48.098;14.422;2023-11-21T12:36:34;8.30;99.90
1359;DHT22;673;48.098;14.422;2023-11-21T12:39:02;8.40;99.90
1359;DHT22;673;48.098;14.422;2023-11-21T12:41:29;8.30;99.90
1359;DHT22;673;48.098;14.422;2023-11-21T12:43:57;8.30;99.90
1359;DHT22;673;48.098;14.422;2023-11-21T12:46:25;8.30;99.90
1359;DHT22;673;48.098;14.422;2023-11-21T12:48:55;8.30;99.90
1359;DHT22;673;48.098;14.422;2023-11-21T12:51:22;8.30;99.90
1359;DHT22;673;48.098;14.422;2023-11-21T12:53:51;8.30;99.90
1359;DHT22;673;48.098;14.422;2023-11-21T12:56:18;8.30;99.90
1359;DHT22;673;48.098;14.422;2023-11-21T12:58:49;8.30;99.90
1359;DHT22;673;48.098;14.422;2023-11-21T13:01:16;8.30;99.90
1359;DHT22;673;48.098;14.422;2023-11-21T13:03:47;8.30;99.90
1359;DHT22;673;48.098;14.422;2023-11-21T13:06:17;8.30;99.90
1359;DHT22;673;48.098;14.422;2023-11-21T13:08:45;8.30;99.90
1359;DHT22;673;48.098;14.422;2023-11-21T13:11:14;8.40;99.90
1359;DHT22;673;48.098;14.422;2023-11-21T13:13:41;8.30;99.90
1359;DHT22;673;48.098;14.422;2023-11-21T13:16:09;8.40;99.90
1359;DHT22;673;48.098;14.422;2023-11-21T13:18:36;8.30;99.90
1359;DHT22;673;48.098;14.422;2023-11-21T13:21:06;8.40;99.90
1359;DHT22;673;48.098;14.422;2023-11-21T13:23:37;8.30;99.90
1359;DHT22;673;48.098;14.422;2023-11-21T13:26:04;8.30;99.90
1359;DHT22;673;48.098;14.422;2023-11-21T13:28:33;8.30;99.90
1359;DHT22;673;48.098;14.422;2023-11-21T13:31:01;8.30;99.90
1359;DHT22;673;48.098;14.422;2023-11-21T13:33:35;8.30;99.90
1359;DHT22;673;48.098;14.422;2023-11-21T13:36:04;8.30;99.90
1359;DHT22;673;48.098;14.422;2023-11-21T13:38:34;8.40;99.90
1359;DHT22;673;48.098;14.422;2023-11-21T13:41:01;8.40;99.90
1359;DHT22;673;48.098;14.422;2023-11-21T13:43:34;8.40;99.90
1359;DHT22;673;48.098;14.422;2023-11-21T13:46:02;8.40;99.90
1359;DHT22;673;48.098;14.422;2023-11-21T13:48:38;8.30;99.90
1359;DHT22;673;48.098;14.422;2023-11-21T13:51:08;8.20;99.90
1359;DHT22;673;48.098;14.422;2023-11-21T13:53:42;8.30;99.90
1359;DHT22;673;48.098;14.422;2023-11-21T13:56:10;8.20;99.90
1359;DHT22;673;48.098;14.422;2023-11-21T13:58:39;8.30;99.90
1359;DHT22;673;48.098;14.422;2023-11-21T14:01:12;8.20;99.90
1359;DHT22;673;48.098;14.422;2023-11-21T14:03:58;8.10;99.90
1359;DHT22;673;48.098;14.422;2023-11-21T14:06:34;8.00;99.90
1359;DHT22;673;48.098;14.422;2023-11-21T14:09:11;8.00;99.90
1359;DHT22;673;48.098;14.422;2023-11-21T14:11:39;7.90;99.90
1359;DHT22;673;48.098;14.422;2023-11-21T14:14:08;7.90;99.90
1359;DHT22;673;48.098;14.422;2023-11-21T14:16:35;7.90;99.90
1359;DHT22;673;48.098;14.422;2023-11-21T14:19:02;7.80;99.90
1359;DHT22;673;48.098;14.422;2023-11-21T14:21:41;7.80;99.90
1359;DHT22;673;48.098;14.422;2023-11-21T14:24:09;7.90;99.90
1359;DHT22;673;48.098;14.422;2023-11-21T14:26:39;7.80;99.90
1359;DHT22;673;48.098;14.422;2023-11-21T14:29:07;7.80;99.90
1359;DHT22;673;48.098;14.422;2023-11-21T14:31:36;7.80;99.90
1359;DHT22;673;48.098;14.422;2023-11-21T14:34:03;7.80;99.90
1359;DHT22;673;48.098;14.422;2023-11-21T14:36:32;7.80;99.90
1359;DHT22;673;48.098;14.422;2023-11-21T14:38:59;7.70;99.90
1359;DHT22;673;48.098;14.422;2023-11-21T14:41:26;7.70;99.90
1359;DHT22;673;48.098;14.422;2023-11-21T14:43:54;7.70;99.90
1359;DHT22;673;48.098;14.422;2023-11-21T14:46:24;7.70;99.90
1359;DHT22;673;48.098;14.422;2023-11-21T14:48:51;7.80;99.90
1359;DHT22;673;48.098;14.422;2023-11-21T14:51:25;7.80;99.90
1359;DHT22;673;48.098;14.422;2023-11-21T14:53:55;7.80;99.90
1359;DHT22;673;48.098;14.422;2023-11-21T14:56:26;7.80;99.90
1359;DHT22;673;48.098;14.422;2023-11-21T14:58:56;7.80;99.90
1359;DHT22;673;48.098;14.422;2023-11-21T15:01:24;7.80;99.90
1359;DHT22;673;48.098;14.422;2023-11-21T15:04:08;7.70;99.90
1359;DHT22;673;48.098;14.422;2023-11-21T15:06:40;7.60;99.90
1359;DHT22;673;48.098;14.422;2023-11-21T15:09:08;7.60;99.90
1359;DHT22;673;48.098;14.422;2023-11-21T15:12:01;7.50;99.90
1359;DHT22;673;48.098;14.422;2023-11-21T15:14:38;7.40;99.90
1359;DHT22;673;48.098;14.422;2023-11-21T15:17:06;7.40;99.90
1359;DHT22;673;48.098;14.422;2023-11-21T15:19:33;7.40;99.90
1359;DHT22;673;48.098;14.422;2023-11-21T15:22:01;7.40;99.90
1359;DHT22;673;48.098;14.422;2023-11-21T15:24:28;7.40;99.90
1359;DHT22;673;48.098;14.422;2023-11-21T15:26:55;7.40;99.90
1359;DHT22;673;48.098;14.422;2023-11-21T15:29:22;7.30;99.90
1359;DHT22;673;48.098;14.422;2023-11-21T15:31:50;7.30;99.90
1359;DHT22;673;48.098;14.422;2023-11-21T15:34:23;7.40;99.90
1359;DHT22;673;48.098;14.422;2023-11-21T15:36:51;7.40;99.90
1359;DHT22;673;48.098;14.422;2023-11-21T15:39:20;7.40;99.90
1359;DHT22;673;48.098;14.422;2023-11-21T15:41:51;7.30;99.90
1359;DHT22;673;48.098;14.422;2023-11-21T15:44:18;7.40;99.90
1359;DHT22;673;48.098;14.422;2023-11-21T15:46:45;7.30;99.90
1359;DHT22;673;48.098;14.422;2023-11-21T15:49:13;7.40;99.90
1359;DHT22;673;48.098;14.422;2023-11-21T15:51:45;7.40;99.90
1359;DHT22;673;48.098;14.422;2023-11-21T15:54:13;7.30;99.90
1359;DHT22;673;48.098;14.422;2023-11-21T15:56:40;7.30;99.90
1359;DHT22;673;48.098;14.422;2023-11-21T15:59:07;7.30;99.90
1359;DHT22;673;48.098;14.422;2023-11-21T16:01:35;7.30;99.90
1359;DHT22;673;48.098;14.422;2023-11-21T16:04:07;7.30;99.90
1359;DHT22;673;48.098;14.422;2023-11-21T16:06:34;7.30;99.90
1359;DHT22;673;48.098;14.422;2023-11-21T16:09:06;7.30;99.90
1359;DHT22;673;48.098;14.422;2023-11-21T16:11:41;7.40;99.90
1359;DHT22;673;48.098;14.422;2023-11-21T16:14:08;7.40;99.90
1359;DHT22;673;48.098;14.422;2023-11-21T16:16:35;7.30;99.90
1359;DHT22;673;48.098;14.422;2023-11-21T16:19:02;7.30;99.90
1359;DHT22;673;48.098;14.422;2023-11-21T16:21:29;7.30;99.90
1359;DHT22;673;48.098;14.422;2023-11-21T16:23:56;7.30;99.90
1359;DHT22;673;48.098;14.422;2023-11-21T16:26:25;7.30;99.90